sensor_id;sensor_type;location;lat;lon;timestamp;P1;durP1;ratioP1;P2;durP2;ratioP2
69841;SDS011;57138;51.326;-0.068;2023-02-16T00:04:19;44.25;;;20.98;;
69841;SDS011;57138;51.326;-0.068;2023-02-16T00:07:37;40.25;;;19.33;;
69841;SDS011;57138;51.326;-0.068;2023-02-16T00:10:03;40.47;;;19.55;;
69841;SDS011;57138;51.326;-0.068;2023-02-16T00:12:29;41.67;;;18.73;;
69841;SDS011;57138;51.326;-0.068;2023-02-16T00:15:19;43.33;;;19.52;;
69841;SDS011;57138;51.326;-0.068;2023-02-16T00:17:45;37.70;;;18.02;;
69841;SDS011;57138;51.326;-0.068;2023-02-16T00:20:14;48.83;;;19.73;;
69841;SDS011;57138;51.326;-0.068;2023-02-16T00:22:41;36.80;;;18.17;;
69841;SDS011;57138;51.326;-0.068;2023-02-16T00:25:07;54.20;;;21.63;;
69841;SDS011;57138;51.326;-0.068;2023-02-16T00:27:32;42.83;;;21.33;;
69841;SDS011;57138;51.326;-0.068;2023-02-16T00:29:58;46.28;;;22.27;;
69841;SDS011;57138;51.326;-0.068;2023-02-16T00:32:24;50.63;;;23.77;;
69841;SDS011;57138;51.326;-0.068;2023-02-16T00:34:50;56.63;;;21.65;;
69841;SDS011;57138;51.326;-0.068;2023-02-16T00:37:15;44.92;;;23.00;;
69841;SDS011;57138;51.326;-0.068;2023-02-16T00:39:41;55.15;;;23.05;;
69841;SDS011;57138;51.326;-0.068;2023-02-16T00:42:12;52.05;;;22.70;;
69841;SDS011;57138;51.326;-0.068;2023-02-16T00:44:44;55.72;;;23.13;;
69841;SDS011;57138;51.326;-0.068;2023-02-16T00:49:55;51.70;;;22.30;;
69841;SDS011;57138;51.326;-0.068;2023-02-16T00:57:23;42.55;;;21.30;;
69841;SDS011;57138;51.326;-0.068;2023-02-16T00:59:55;50.45;;;22.00;;
69841;SDS011;57138;51.326;-0.068;2023-02-16T01:02:26;45.70;;;20.95;;
69841;SDS011;57138;51.326;-0.068;2023-02-16T01:04:51;41.45;;;21.17;;
69841;SDS011;57138;51.326;-0.068;2023-02-16T01:07:17;42.72;;;22.02;;
69841;SDS011;57138;51.326;-0.068;2023-02-16T01:10:03;46.97;;;21.05;;
69841;SDS011;57138;51.326;-0.068;2023-02-16T01:12:47;49.13;;;22.10;;
69841;SDS011;57138;51.326;-0.068;2023-02-16T01:15:14;43.40;;;20.85;;
69841;SDS011;57138;51.326;-0.068;2023-02-16T01:17:41;50.20;;;22.05;;
69841;SDS011;57138;51.326;-0.068;2023-02-16T01:20:26;45.50;;;21.10;;
69841;SDS011;57138;51.326;-0.068;2023-02-16T01:22:52;44.03;;;20.90;;
69841;SDS011;57138;51.326;-0.068;2023-02-16T01:25:18;50.28;;;20.70;;
69841;SDS011;57138;51.326;-0.068;2023-02-16T01:27:43;41.88;;;20.80;;
69841;SDS011;57138;51.326;-0.068;2023-02-16T01:30:14;34.97;;;18.52;;
69841;SDS011;57138;51.326;-0.068;2023-02-16T01:32:44;40.42;;;18.05;;
69841;SDS011;57138;51.326;-0.068;2023-02-16T01:35:15;34.10;;;18.33;;
69841;SDS011;57138;51.326;-0.068;2023-02-16T01:37:45;36.33;;;17.52;;
69841;SDS011;57138;51.326;-0.068;2023-02-16T01:40:19;35.05;;;16.15;;
69841;SDS011;57138;51.326;-0.068;2023-02-16T01:42:53;33.53;;;16.42;;
69841;SDS011;57138;51.326;-0.068;2023-02-16T01:45:31;26.45;;;15.45;;
69841;SDS011;57138;51.326;-0.068;2023-02-16T01:48:03;32.22;;;14.55;;
69841;SDS011;57138;51.326;-0.068;2023-02-16T01:53:16;23.30;;;13.38;;
69841;SDS011;57138;51.326;-0.068;2023-02-16T01:55:46;21.45;;;12.65;;
69841;SDS011;57138;51.326;-0.068;2023-02-16T02:03:18;25.85;;;11.85;;
69841;SDS011;57138;51.326;-0.068;2023-02-16T02:06:18;25.20;;;9.75;;
69841;SDS011;57138;51.326;-0.068;2023-02-16T02:08:55;23.05;;;10.77;;
69841;SDS011;57138;51.326;-0.068;2023-02-16T02:14:04;17.63;;;9.48;;
69841;SDS011;57138;51.326;-0.068;2023-02-16T02:16:35;20.67;;;9.32;;
69841;SDS011;57138;51.326;-0.068;2023-02-16T02:19:01;21.30;;;9.13;;
69841;SDS011;57138;51.326;-0.068;2023-02-16T02:29:52;19.73;;;6.55;;
69841;SDS011;57138;51.326;-0.068;2023-02-16T02:37:43;11.27;;;5.50;;
69841;SDS011;57138;51.326;-0.068;2023-02-16T02:40:35;14.95;;;5.70;;
69841;SDS011;57138;51.326;-0.068;2023-02-16T02:45:38;8.27;;;3.60;;
69841;SDS011;57138;51.326;-0.068;2023-02-16T02:48:08;8.45;;;3.65;;
69841;SDS011;57138;51.326;-0.068;2023-02-16T02:53:05;10.38;;;2.97;;
69841;SDS011;57138;51.326;-0.068;2023-02-16T02:55:41;8.32;;;2.95;;
69841;SDS011;57138;51.326;-0.068;2023-02-16T02:58:29;12.88;;;3.65;;
69841;SDS011;57138;51.326;-0.068;2023-02-16T03:01:18;10.00;;;3.03;;
69841;SDS011;57138;51.326;-0.068;2023-02-16T03:03:46;8.57;;;2.92;;
69841;SDS011;57138;51.326;-0.068;2023-02-16T03:06:20;7.20;;;2.40;;
69841;SDS011;57138;51.326;-0.068;2023-02-16T03:08:52;10.38;;;2.67;;
69841;SDS011;57138;51.326;-0.068;2023-02-16T03:11:25;6.63;;;2.05;;
69841;SDS011;57138;51.326;-0.068;2023-02-16T03:14:18;10.20;;;2.50;;
69841;SDS011;57138;51.326;-0.068;2023-02-16T03:16:50;17.30;;;3.60;;
69841;SDS011;57138;51.326;-0.068;2023-02-16T03:19:38;10.63;;;3.95;;
69841;SDS011;57138;51.326;-0.068;2023-02-16T03:22:24;11.70;;;4.05;;
69841;SDS011;57138;51.326;-0.068;2023-02-16T03:25:09;12.88;;;4.75;;
69841;SDS011;57138;51.326;-0.068;2023-02-16T03:27:53;10.50;;;4.80;;
69841;SDS011;57138;51.326;-0.068;2023-02-16T03:30:39;14.82;;;5.30;;
69841;SDS011;57138;51.326;-0.068;2023-02-16T03:33:06;11.68;;;5.22;;
69841;SDS011;57138;51.326;-0.068;2023-02-16T03:35:32;14.13;;;4.53;;
69841;SDS011;57138;51.326;-0.068;2023-02-16T03:37:59;13.30;;;4.85;;
69841;SDS011;57138;51.326;-0.068;2023-02-16T03:40:25;13.05;;;5.40;;
69841;SDS011;57138;51.326;-0.068;2023-02-16T03:42:52;11.95;;;5.28;;
69841;SDS011;57138;51.326;-0.068;2023-02-16T03:45:20;13.68;;;5.40;;
69841;SDS011;57138;51.326;-0.068;2023-02-16T03:47:47;14.73;;;5.28;;
69841;SDS011;57138;51.326;-0.068;2023-02-16T03:50:13;14.38;;;6.43;;
69841;SDS011;57138;51.326;-0.068;2023-02-16T03:52:38;11.30;;;6.38;;
69841;SDS011;57138;51.326;-0.068;2023-02-16T03:55:04;12.93;;;6.18;;
69841;SDS011;57138;51.326;-0.068;2023-02-16T03:57:30;9.90;;;5.20;;
69841;SDS011;57138;51.326;-0.068;2023-02-16T03:59:56;11.70;;;4.40;;
69841;SDS011;57138;51.326;-0.068;2023-02-16T04:02:22;11.23;;;5.40;;
69841;SDS011;57138;51.326;-0.068;2023-02-16T04:04:48;8.73;;;3.90;;
69841;SDS011;57138;51.326;-0.068;2023-02-16T04:07:14;10.13;;;4.43;;
69841;SDS011;57138;51.326;-0.068;2023-02-16T04:09:39;12.70;;;5.13;;
69841;SDS011;57138;51.326;-0.068;2023-02-16T04:12:04;14.73;;;4.60;;
69841;SDS011;57138;51.326;-0.068;2023-02-16T04:14:49;12.60;;;4.93;;
69841;SDS011;57138;51.326;-0.068;2023-02-16T04:17:14;9.60;;;4.35;;
69841;SDS011;57138;51.326;-0.068;2023-02-16T04:19:40;11.93;;;5.35;;
69841;SDS011;57138;51.326;-0.068;2023-02-16T04:22:07;11.50;;;5.00;;
69841;SDS011;57138;51.326;-0.068;2023-02-16T04:24:40;11.65;;;4.68;;
69841;SDS011;57138;51.326;-0.068;2023-02-16T04:27:05;11.13;;;4.40;;
69841;SDS011;57138;51.326;-0.068;2023-02-16T04:29:31;11.40;;;4.65;;
69841;SDS011;57138;51.326;-0.068;2023-02-16T04:31:56;9.40;;;4.88;;
69841;SDS011;57138;51.326;-0.068;2023-02-16T04:34:22;8.00;;;4.53;;
69841;SDS011;57138;51.326;-0.068;2023-02-16T04:36:48;8.88;;;4.35;;
69841;SDS011;57138;51.326;-0.068;2023-02-16T04:39:13;14.07;;;4.57;;
69841;SDS011;57138;51.326;-0.068;2023-02-16T04:41:38;9.32;;;4.75;;
69841;SDS011;57138;51.326;-0.068;2023-02-16T04:44:04;10.80;;;4.00;;
69841;SDS011;57138;51.326;-0.068;2023-02-16T04:46:30;12.55;;;5.15;;
69841;SDS011;57138;51.326;-0.068;2023-02-16T04:48:55;11.23;;;4.68;;
69841;SDS011;57138;51.326;-0.068;2023-02-16T04:51:21;13.13;;;4.72;;
69841;SDS011;57138;51.326;-0.068;2023-02-16T04:53:46;11.10;;;4.40;;
69841;SDS011;57138;51.326;-0.068;2023-02-16T04:56:12;13.38;;;4.22;;
69841;SDS011;57138;51.326;-0.068;2023-02-16T04:58:38;12.77;;;4.18;;
69841;SDS011;57138;51.326;-0.068;2023-02-16T05:01:03;10.00;;;4.22;;
69841;SDS011;57138;51.326;-0.068;2023-02-16T05:03:29;11.70;;;4.47;;
69841;SDS011;57138;51.326;-0.068;2023-02-16T05:05:55;12.15;;;4.80;;
69841;SDS011;57138;51.326;-0.068;2023-02-16T05:08:20;10.52;;;4.68;;
69841;SDS011;57138;51.326;-0.068;2023-02-16T05:10:46;11.30;;;4.40;;
69841;SDS011;57138;51.326;-0.068;2023-02-16T05:13:31;11.30;;;4.38;;
69841;SDS011;57138;51.326;-0.068;2023-02-16T05:16:15;12.82;;;4.35;;
69841;SDS011;57138;51.326;-0.068;2023-02-16T05:18:41;11.77;;;5.20;;
69841;SDS011;57138;51.326;-0.068;2023-02-16T05:21:06;15.35;;;4.90;;
69841;SDS011;57138;51.326;-0.068;2023-02-16T05:24:08;14.15;;;5.80;;
69841;SDS011;57138;51.326;-0.068;2023-02-16T05:26:35;19.55;;;4.53;;
69841;SDS011;57138;51.326;-0.068;2023-02-16T05:29:02;15.23;;;5.90;;
69841;SDS011;57138;51.326;-0.068;2023-02-16T05:31:28;11.45;;;5.65;;
69841;SDS011;57138;51.326;-0.068;2023-02-16T05:33:53;11.05;;;4.50;;
69841;SDS011;57138;51.326;-0.068;2023-02-16T05:36:19;12.10;;;4.72;;
69841;SDS011;57138;51.326;-0.068;2023-02-16T05:38:46;15.43;;;5.10;;
69841;SDS011;57138;51.326;-0.068;2023-02-16T05:41:12;11.52;;;4.80;;
69841;SDS011;57138;51.326;-0.068;2023-02-16T05:43:54;14.82;;;5.00;;
69841;SDS011;57138;51.326;-0.068;2023-02-16T05:46:22;11.18;;;5.15;;
69841;SDS011;57138;51.326;-0.068;2023-02-16T05:48:49;13.38;;;4.88;;
69841;SDS011;57138;51.326;-0.068;2023-02-16T05:51:14;17.10;;;5.00;;
69841;SDS011;57138;51.326;-0.068;2023-02-16T05:53:41;15.48;;;5.65;;
69841;SDS011;57138;51.326;-0.068;2023-02-16T05:56:06;10.30;;;4.55;;
69841;SDS011;57138;51.326;-0.068;2023-02-16T05:58:32;15.38;;;5.88;;
69841;SDS011;57138;51.326;-0.068;2023-02-16T06:00:57;17.50;;;6.55;;
69841;SDS011;57138;51.326;-0.068;2023-02-16T06:03:23;12.82;;;6.55;;
69841;SDS011;57138;51.326;-0.068;2023-02-16T06:05:56;11.20;;;5.57;;
69841;SDS011;57138;51.326;-0.068;2023-02-16T06:08:27;12.45;;;7.25;;
69841;SDS011;57138;51.326;-0.068;2023-02-16T06:10:53;15.23;;;8.40;;
69841;SDS011;57138;51.326;-0.068;2023-02-16T06:13:20;18.83;;;7.88;;
69841;SDS011;57138;51.326;-0.068;2023-02-16T06:15:46;19.55;;;9.20;;
69841;SDS011;57138;51.326;-0.068;2023-02-16T06:18:14;20.73;;;8.93;;
69841;SDS011;57138;51.326;-0.068;2023-02-16T06:20:40;19.52;;;10.27;;
69841;SDS011;57138;51.326;-0.068;2023-02-16T06:23:06;23.50;;;10.52;;
69841;SDS011;57138;51.326;-0.068;2023-02-16T06:25:34;19.30;;;11.77;;
69841;SDS011;57138;51.326;-0.068;2023-02-16T06:27:59;21.17;;;12.10;;
69841;SDS011;57138;51.326;-0.068;2023-02-16T06:30:25;22.83;;;12.05;;
69841;SDS011;57138;51.326;-0.068;2023-02-16T06:32:51;24.42;;;10.93;;
69841;SDS011;57138;51.326;-0.068;2023-02-16T06:35:17;26.90;;;13.02;;
69841;SDS011;57138;51.326;-0.068;2023-02-16T06:37:42;24.25;;;13.93;;
69841;SDS011;57138;51.326;-0.068;2023-02-16T06:40:08;23.25;;;12.82;;
69841;SDS011;57138;51.326;-0.068;2023-02-16T06:42:35;30.42;;;14.90;;
69841;SDS011;57138;51.326;-0.068;2023-02-16T06:45:01;18.63;;;11.65;;
69841;SDS011;57138;51.326;-0.068;2023-02-16T06:47:27;25.75;;;13.65;;
69841;SDS011;57138;51.326;-0.068;2023-02-16T06:49:52;20.10;;;12.85;;
69841;SDS011;57138;51.326;-0.068;2023-02-16T06:52:18;28.10;;;14.27;;
69841;SDS011;57138;51.326;-0.068;2023-02-16T06:54:43;30.65;;;14.90;;
69841;SDS011;57138;51.326;-0.068;2023-02-16T06:57:09;26.98;;;14.00;;
69841;SDS011;57138;51.326;-0.068;2023-02-16T06:59:34;23.45;;;12.23;;
69841;SDS011;57138;51.326;-0.068;2023-02-16T07:02:00;24.73;;;13.30;;
69841;SDS011;57138;51.326;-0.068;2023-02-16T07:04:25;26.38;;;12.18;;
69841;SDS011;57138;51.326;-0.068;2023-02-16T07:06:51;23.50;;;12.43;;
69841;SDS011;57138;51.326;-0.068;2023-02-16T07:09:16;25.80;;;11.40;;
69841;SDS011;57138;51.326;-0.068;2023-02-16T07:11:42;23.40;;;12.63;;
69841;SDS011;57138;51.326;-0.068;2023-02-16T07:14:07;18.70;;;11.52;;
69841;SDS011;57138;51.326;-0.068;2023-02-16T07:16:33;23.92;;;13.93;;
69841;SDS011;57138;51.326;-0.068;2023-02-16T07:18:59;27.23;;;12.35;;
69841;SDS011;57138;51.326;-0.068;2023-02-16T07:21:24;20.90;;;12.15;;
69841;SDS011;57138;51.326;-0.068;2023-02-16T07:23:49;24.40;;;13.98;;
69841;SDS011;57138;51.326;-0.068;2023-02-16T07:26:15;21.17;;;11.30;;
69841;SDS011;57138;51.326;-0.068;2023-02-16T07:28:40;22.33;;;12.13;;
69841;SDS011;57138;51.326;-0.068;2023-02-16T07:31:07;24.70;;;11.65;;
69841;SDS011;57138;51.326;-0.068;2023-02-16T07:33:35;20.65;;;11.93;;
69841;SDS011;57138;51.326;-0.068;2023-02-16T07:36:01;19.27;;;10.52;;
69841;SDS011;57138;51.326;-0.068;2023-02-16T07:38:27;22.63;;;10.07;;
69841;SDS011;57138;51.326;-0.068;2023-02-16T07:40:56;20.00;;;9.60;;
69841;SDS011;57138;51.326;-0.068;2023-02-16T07:43:22;21.55;;;10.02;;
69841;SDS011;57138;51.326;-0.068;2023-02-16T07:45:48;16.85;;;8.77;;
69841;SDS011;57138;51.326;-0.068;2023-02-16T07:48:13;19.02;;;9.20;;
69841;SDS011;57138;51.326;-0.068;2023-02-16T07:50:39;15.02;;;6.10;;
69841;SDS011;57138;51.326;-0.068;2023-02-16T07:53:05;12.52;;;6.10;;
69841;SDS011;57138;51.326;-0.068;2023-02-16T07:55:30;9.00;;;4.40;;
69841;SDS011;57138;51.326;-0.068;2023-02-16T07:57:56;16.20;;;6.30;;
69841;SDS011;57138;51.326;-0.068;2023-02-16T08:00:25;7.75;;;4.22;;
69841;SDS011;57138;51.326;-0.068;2023-02-16T08:02:51;12.35;;;4.57;;
69841;SDS011;57138;51.326;-0.068;2023-02-16T08:05:17;7.10;;;4.00;;
69841;SDS011;57138;51.326;-0.068;2023-02-16T08:07:43;8.30;;;3.05;;
69841;SDS011;57138;51.326;-0.068;2023-02-16T08:10:09;7.32;;;2.38;;
69841;SDS011;57138;51.326;-0.068;2023-02-16T08:12:35;9.85;;;2.40;;
69841;SDS011;57138;51.326;-0.068;2023-02-16T08:15:01;4.90;;;2.10;;
69841;SDS011;57138;51.326;-0.068;2023-02-16T08:17:27;8.25;;;2.53;;
69841;SDS011;57138;51.326;-0.068;2023-02-16T08:19:52;12.50;;;2.88;;
69841;SDS011;57138;51.326;-0.068;2023-02-16T08:22:18;4.18;;;1.38;;
69841;SDS011;57138;51.326;-0.068;2023-02-16T08:24:43;13.32;;;1.77;;
69841;SDS011;57138;51.326;-0.068;2023-02-16T08:27:09;5.93;;;1.42;;
69841;SDS011;57138;51.326;-0.068;2023-02-16T08:29:34;12.00;;;2.45;;
69841;SDS011;57138;51.326;-0.068;2023-02-16T08:32:00;8.02;;;1.30;;
69841;SDS011;57138;51.326;-0.068;2023-02-16T08:34:31;9.43;;;1.25;;
69841;SDS011;57138;51.326;-0.068;2023-02-16T08:36:59;4.38;;;1.20;;
69841;SDS011;57138;51.326;-0.068;2023-02-16T08:39:27;7.75;;;1.85;;
69841;SDS011;57138;51.326;-0.068;2023-02-16T08:41:55;9.88;;;1.95;;
69841;SDS011;57138;51.326;-0.068;2023-02-16T08:44:22;4.53;;;1.60;;
69841;SDS011;57138;51.326;-0.068;2023-02-16T08:46:49;7.50;;;1.50;;
69841;SDS011;57138;51.326;-0.068;2023-02-16T08:49:17;9.98;;;2.90;;
69841;SDS011;57138;51.326;-0.068;2023-02-16T08:51:44;6.90;;;2.30;;
69841;SDS011;57138;51.326;-0.068;2023-02-16T08:54:18;8.23;;;2.28;;
69841;SDS011;57138;51.326;-0.068;2023-02-16T08:56:47;4.97;;;2.17;;
69841;SDS011;57138;51.326;-0.068;2023-02-16T08:59:17;9.63;;;2.40;;
69841;SDS011;57138;51.326;-0.068;2023-02-16T09:01:43;6.28;;;2.10;;
69841;SDS011;57138;51.326;-0.068;2023-02-16T09:04:10;11.50;;;2.45;;
69841;SDS011;57138;51.326;-0.068;2023-02-16T09:06:37;18.17;;;3.08;;
69841;SDS011;57138;51.326;-0.068;2023-02-16T09:09:04;44.22;;;3.22;;
69841;SDS011;57138;51.326;-0.068;2023-02-16T09:11:31;9.73;;;2.63;;
69841;SDS011;57138;51.326;-0.068;2023-02-16T09:13:56;13.70;;;4.22;;
69841;SDS011;57138;51.326;-0.068;2023-02-16T09:16:23;4.72;;;2.83;;
69841;SDS011;57138;51.326;-0.068;2023-02-16T09:18:49;48.75;;;5.40;;
69841;SDS011;57138;51.326;-0.068;2023-02-16T09:21:16;23.52;;;2.97;;
69841;SDS011;57138;51.326;-0.068;2023-02-16T09:23:45;7.63;;;2.42;;
69841;SDS011;57138;51.326;-0.068;2023-02-16T09:26:13;58.85;;;4.25;;
69841;SDS011;57138;51.326;-0.068;2023-02-16T09:28:40;22.85;;;2.97;;
69841;SDS011;57138;51.326;-0.068;2023-02-16T09:31:08;19.70;;;2.70;;
69841;SDS011;57138;51.326;-0.068;2023-02-16T09:33:37;31.38;;;3.47;;
69841;SDS011;57138;51.326;-0.068;2023-02-16T09:36:03;18.10;;;3.80;;
69841;SDS011;57138;51.326;-0.068;2023-02-16T09:38:33;9.40;;;3.60;;
69841;SDS011;57138;51.326;-0.068;2023-02-16T09:43:38;11.15;;;3.67;;
69841;SDS011;57138;51.326;-0.068;2023-02-16T09:46:12;8.88;;;3.90;;
69841;SDS011;57138;51.326;-0.068;2023-02-16T09:48:46;12.30;;;4.53;;
69841;SDS011;57138;51.326;-0.068;2023-02-16T09:51:36;12.63;;;4.82;;
69841;SDS011;57138;51.326;-0.068;2023-02-16T09:56:55;9.25;;;5.07;;
69841;SDS011;57138;51.326;-0.068;2023-02-16T10:05:11;8.02;;;4.53;;
69841;SDS011;57138;51.326;-0.068;2023-02-16T10:10:13;7.18;;;4.43;;
69841;SDS011;57138;51.326;-0.068;2023-02-16T10:12:42;11.07;;;5.22;;
69841;SDS011;57138;51.326;-0.068;2023-02-16T10:15:16;12.48;;;4.65;;
69841;SDS011;57138;51.326;-0.068;2023-02-16T10:18:00;13.88;;;5.30;;
69841;SDS011;57138;51.326;-0.068;2023-02-16T10:20:33;13.40;;;6.38;;
69841;SDS011;57138;51.326;-0.068;2023-02-16T10:23:12;14.70;;;5.97;;
69841;SDS011;57138;51.326;-0.068;2023-02-16T10:28:39;15.73;;;5.90;;
69841;SDS011;57138;51.326;-0.068;2023-02-16T10:42:15;16.13;;;7.43;;
69841;SDS011;57138;51.326;-0.068;2023-02-16T10:45:01;13.93;;;6.28;;
69841;SDS011;57138;51.326;-0.068;2023-02-16T10:47:40;17.08;;;7.38;;
69841;SDS011;57138;51.326;-0.068;2023-02-16T10:50:19;18.02;;;7.00;;
69841;SDS011;57138;51.326;-0.068;2023-02-16T10:52:48;38.03;;;7.43;;
69841;SDS011;57138;51.326;-0.068;2023-02-16T10:55:14;13.93;;;7.47;;
69841;SDS011;57138;51.326;-0.068;2023-02-16T10:57:41;50.40;;;7.25;;
69841;SDS011;57138;51.326;-0.068;2023-02-16T11:00:08;22.20;;;7.28;;
69841;SDS011;57138;51.326;-0.068;2023-02-16T11:02:41;17.58;;;5.03;;
69841;SDS011;57138;51.326;-0.068;2023-02-16T11:07:59;24.77;;;6.93;;
69841;SDS011;57138;51.326;-0.068;2023-02-16T11:13:31;13.40;;;7.70;;
69841;SDS011;57138;51.326;-0.068;2023-02-16T11:16:05;14.00;;;5.93;;
69841;SDS011;57138;51.326;-0.068;2023-02-16T11:18:44;13.35;;;5.50;;
69841;SDS011;57138;51.326;-0.068;2023-02-16T11:21:14;11.20;;;4.85;;
69841;SDS011;57138;51.326;-0.068;2023-02-16T11:23:43;9.02;;;4.43;;
69841;SDS011;57138;51.326;-0.068;2023-02-16T11:26:23;16.23;;;5.50;;
69841;SDS011;57138;51.326;-0.068;2023-02-16T11:28:50;15.32;;;6.82;;
69841;SDS011;57138;51.326;-0.068;2023-02-16T11:39:46;11.68;;;5.78;;
69841;SDS011;57138;51.326;-0.068;2023-02-16T11:41:49;21.95;;;5.18;;
69841;SDS011;57138;51.326;-0.068;2023-02-16T11:44:26;9.00;;;5.10;;
69841;SDS011;57138;51.326;-0.068;2023-02-16T11:46:57;10.65;;;5.15;;
69841;SDS011;57138;51.326;-0.068;2023-02-16T11:49:38;18.10;;;5.65;;
69841;SDS011;57138;51.326;-0.068;2023-02-16T11:54:53;8.93;;;5.15;;
69841;SDS011;57138;51.326;-0.068;2023-02-16T11:57:25;10.52;;;6.53;;
69841;SDS011;57138;51.326;-0.068;2023-02-16T11:59:53;10.20;;;6.05;;
69841;SDS011;57138;51.326;-0.068;2023-02-16T12:07:47;9.15;;;6.07;;
69841;SDS011;57138;51.326;-0.068;2023-02-16T12:13:02;11.60;;;5.97;;
69841;SDS011;57138;51.326;-0.068;2023-02-16T12:15:39;12.27;;;7.00;;
69841;SDS011;57138;51.326;-0.068;2023-02-16T12:18:17;17.25;;;7.03;;
69841;SDS011;57138;51.326;-0.068;2023-02-16T12:29:05;12.95;;;7.32;;
69841;SDS011;57138;51.326;-0.068;2023-02-16T12:34:53;19.48;;;4.97;;
69841;SDS011;57138;51.326;-0.068;2023-02-16T12:43:00;6.25;;;3.65;;
69841;SDS011;57138;51.326;-0.068;2023-02-16T12:45:37;8.55;;;3.28;;
69841;SDS011;57138;51.326;-0.068;2023-02-16T12:48:16;4.47;;;2.80;;
69841;SDS011;57138;51.326;-0.068;2023-02-16T12:50:51;15.73;;;3.67;;
69841;SDS011;57138;51.326;-0.068;2023-02-16T12:54:22;10.32;;;3.40;;
69841;SDS011;57138;51.326;-0.068;2023-02-16T12:56:22;6.95;;;3.63;;
69841;SDS011;57138;51.326;-0.068;2023-02-16T12:59:30;5.13;;;2.38;;
69841;SDS011;57138;51.326;-0.068;2023-02-16T13:02:03;5.72;;;2.75;;
69841;SDS011;57138;51.326;-0.068;2023-02-16T13:07:41;4.65;;;2.67;;
69841;SDS011;57138;51.326;-0.068;2023-02-16T13:10:19;9.27;;;3.45;;
69841;SDS011;57138;51.326;-0.068;2023-02-16T13:12:49;6.25;;;3.60;;
69841;SDS011;57138;51.326;-0.068;2023-02-16T13:18:11;6.38;;;3.97;;
69841;SDS011;57138;51.326;-0.068;2023-02-16T13:20:47;6.57;;;4.18;;
69841;SDS011;57138;51.326;-0.068;2023-02-16T13:43:59;9.98;;;6.28;;
69841;SDS011;57138;51.326;-0.068;2023-02-16T13:46:32;9.88;;;7.22;;
69841;SDS011;57138;51.326;-0.068;2023-02-16T13:49:03;9.55;;;6.53;;
69841;SDS011;57138;51.326;-0.068;2023-02-16T13:51:38;11.80;;;6.45;;
69841;SDS011;57138;51.326;-0.068;2023-02-16T13:54:12;24.85;;;7.35;;
69841;SDS011;57138;51.326;-0.068;2023-02-16T13:56:47;13.80;;;8.55;;
69841;SDS011;57138;51.326;-0.068;2023-02-16T14:01:42;7.50;;;6.10;;
69841;SDS011;57138;51.326;-0.068;2023-02-16T14:04:10;9.27;;;6.75;;
69841;SDS011;57138;51.326;-0.068;2023-02-16T14:19:48;9.35;;;5.95;;
69841;SDS011;57138;51.326;-0.068;2023-02-16T14:22:21;7.88;;;5.82;;
69841;SDS011;57138;51.326;-0.068;2023-02-16T14:24:53;9.60;;;5.63;;
69841;SDS011;57138;51.326;-0.068;2023-02-16T14:27:39;10.15;;;7.00;;
69841;SDS011;57138;51.326;-0.068;2023-02-16T14:30:43;13.77;;;8.93;;
69841;SDS011;57138;51.326;-0.068;2023-02-16T14:36:16;15.38;;;8.85;;
69841;SDS011;57138;51.326;-0.068;2023-02-16T14:43:52;11.93;;;8.32;;
69841;SDS011;57138;51.326;-0.068;2023-02-16T14:58:03;11.18;;;5.40;;
69841;SDS011;57138;51.326;-0.068;2023-02-16T15:00:50;15.10;;;6.70;;
69841;SDS011;57138;51.326;-0.068;2023-02-16T15:03:23;9.55;;;5.07;;
69841;SDS011;57138;51.326;-0.068;2023-02-16T15:06:05;13.05;;;7.25;;
69841;SDS011;57138;51.326;-0.068;2023-02-16T15:12:11;7.90;;;4.50;;
69841;SDS011;57138;51.326;-0.068;2023-02-16T15:14:56;8.85;;;5.00;;
69841;SDS011;57138;51.326;-0.068;2023-02-16T15:17:31;10.52;;;6.03;;
69841;SDS011;57138;51.326;-0.068;2023-02-16T15:23:26;12.60;;;5.82;;
69841;SDS011;57138;51.326;-0.068;2023-02-16T15:26:00;8.23;;;5.07;;
69841;SDS011;57138;51.326;-0.068;2023-02-16T15:28:29;8.73;;;4.03;;
69841;SDS011;57138;51.326;-0.068;2023-02-16T15:31:03;7.43;;;4.57;;
69841;SDS011;57138;51.326;-0.068;2023-02-16T15:33:35;7.43;;;3.85;;
69841;SDS011;57138;51.326;-0.068;2023-02-16T15:36:10;5.57;;;3.40;;
69841;SDS011;57138;51.326;-0.068;2023-02-16T15:38:39;7.68;;;3.25;;
69841;SDS011;57138;51.326;-0.068;2023-02-16T15:41:30;7.78;;;3.05;;
69841;SDS011;57138;51.326;-0.068;2023-02-16T15:47:21;5.63;;;2.92;;
69841;SDS011;57138;51.326;-0.068;2023-02-16T15:49:48;6.80;;;3.10;;
69841;SDS011;57138;51.326;-0.068;2023-02-16T15:52:17;6.90;;;3.33;;
69841;SDS011;57138;51.326;-0.068;2023-02-16T15:54:46;8.20;;;4.20;;
69841;SDS011;57138;51.326;-0.068;2023-02-16T15:57:30;6.68;;;4.13;;
69841;SDS011;57138;51.326;-0.068;2023-02-16T16:00:03;9.48;;;4.90;;
69841;SDS011;57138;51.326;-0.068;2023-02-16T16:05:04;8.00;;;4.28;;
69841;SDS011;57138;51.326;-0.068;2023-02-16T16:10:02;7.43;;;4.47;;
69841;SDS011;57138;51.326;-0.068;2023-02-16T16:12:45;10.50;;;4.97;;
69841;SDS011;57138;51.326;-0.068;2023-02-16T16:15:19;10.73;;;5.53;;
69841;SDS011;57138;51.326;-0.068;2023-02-16T16:17:47;9.88;;;5.38;;
69841;SDS011;57138;51.326;-0.068;2023-02-16T16:20:22;8.60;;;4.65;;
69841;SDS011;57138;51.326;-0.068;2023-02-16T16:25:45;9.00;;;4.80;;
69841;SDS011;57138;51.326;-0.068;2023-02-16T16:31:09;7.40;;;4.82;;
69841;SDS011;57138;51.326;-0.068;2023-02-16T16:36:31;8.65;;;5.47;;
69841;SDS011;57138;51.326;-0.068;2023-02-16T16:44:33;9.73;;;6.53;;
69841;SDS011;57138;51.326;-0.068;2023-02-16T16:47:12;10.05;;;5.97;;
69841;SDS011;57138;51.326;-0.068;2023-02-16T16:49:49;9.30;;;6.50;;
69841;SDS011;57138;51.326;-0.068;2023-02-16T16:52:27;10.55;;;6.88;;
69841;SDS011;57138;51.326;-0.068;2023-02-16T16:54:56;12.15;;;8.15;;
69841;SDS011;57138;51.326;-0.068;2023-02-16T16:57:24;13.63;;;8.40;;
69841;SDS011;57138;51.326;-0.068;2023-02-16T16:59:50;11.98;;;7.38;;
69841;SDS011;57138;51.326;-0.068;2023-02-16T17:02:15;12.45;;;8.77;;
69841;SDS011;57138;51.326;-0.068;2023-02-16T17:04:41;14.05;;;9.65;;
69841;SDS011;57138;51.326;-0.068;2023-02-16T17:07:06;16.40;;;9.93;;
69841;SDS011;57138;51.326;-0.068;2023-02-16T17:09:35;17.08;;;9.80;;
69841;SDS011;57138;51.326;-0.068;2023-02-16T17:12:00;13.88;;;9.75;;
69841;SDS011;57138;51.326;-0.068;2023-02-16T17:14:26;16.70;;;11.10;;
69841;SDS011;57138;51.326;-0.068;2023-02-16T17:16:52;17.40;;;11.68;;
69841;SDS011;57138;51.326;-0.068;2023-02-16T17:19:19;16.33;;;12.65;;
69841;SDS011;57138;51.326;-0.068;2023-02-16T17:21:46;17.95;;;12.35;;
69841;SDS011;57138;51.326;-0.068;2023-02-16T17:24:13;18.25;;;12.25;;
69841;SDS011;57138;51.326;-0.068;2023-02-16T17:26:39;18.27;;;12.32;;
69841;SDS011;57138;51.326;-0.068;2023-02-16T17:29:05;20.05;;;13.52;;
69841;SDS011;57138;51.326;-0.068;2023-02-16T17:31:31;22.08;;;15.23;;
69841;SDS011;57138;51.326;-0.068;2023-02-16T17:33:57;22.50;;;14.73;;
69841;SDS011;57138;51.326;-0.068;2023-02-16T17:36:24;21.88;;;15.82;;
69841;SDS011;57138;51.326;-0.068;2023-02-16T17:38:51;28.15;;;17.17;;
69841;SDS011;57138;51.326;-0.068;2023-02-16T17:41:19;22.42;;;15.60;;
69841;SDS011;57138;51.326;-0.068;2023-02-16T17:43:46;27.30;;;18.10;;
69841;SDS011;57138;51.326;-0.068;2023-02-16T17:46:12;27.92;;;18.02;;
69841;SDS011;57138;51.326;-0.068;2023-02-16T17:48:38;28.35;;;18.15;;
69841;SDS011;57138;51.326;-0.068;2023-02-16T17:51:05;28.10;;;19.50;;
69841;SDS011;57138;51.326;-0.068;2023-02-16T17:53:37;33.47;;;19.98;;
69841;SDS011;57138;51.326;-0.068;2023-02-16T17:56:13;33.03;;;20.63;;
69841;SDS011;57138;51.326;-0.068;2023-02-16T17:58:40;25.48;;;18.30;;
69841;SDS011;57138;51.326;-0.068;2023-02-16T18:01:08;26.60;;;19.15;;